createdAt,value
2018-06-11T00:00:33.803Z,39.93
2018-06-11T00:03:03.294Z,33.23
2018-06-11T00:05:38.754Z,30.73
2018-06-11T00:08:08.661Z,33.00
2018-06-11T00:10:38.410Z,27.77
2018-06-11T00:13:07.008Z,33.27
2018-06-11T00:15:38.651Z,32.13
2018-06-11T00:18:09.115Z,41.00
2018-06-11T00:20:37.710Z,30.37
2018-06-11T00:23:06.383Z,34.67
2018-06-11T00:25:36.335Z,30.90
2018-06-11T00:28:09.967Z,34.63
2018-06-11T00:30:39.770Z,36.03
2018-06-11T00:33:10.515Z,32.40
2018-06-11T00:35:39.146Z,39.53
2018-06-11T00:38:08.311Z,32.83
2018-06-11T00:40:37.802Z,33.93
2018-06-11T00:43:07.867Z,38.80
2018-06-11T00:45:37.390Z,35.53
2018-06-11T00:48:09.012Z,34.57
2018-06-11T00:50:38.081Z,33.50
2018-06-11T00:53:09.685Z,40.73
2018-06-11T00:55:44.292Z,29.77
2018-06-11T00:58:14.305Z,33.30
2018-06-11T01:00:44.191Z,32.87
2018-06-11T01:03:13.301Z,31.07
2018-06-11T01:05:44.346Z,29.27
2018-06-11T01:08:16.688Z,30.47
2018-06-11T01:10:49.041Z,29.63
2018-06-11T01:13:21.220Z,34.07
2018-06-11T01:15:50.634Z,34.00
2018-06-11T01:18:21.112Z,37.23
2018-06-11T01:20:50.788Z,37.00
2018-06-11T01:23:21.414Z,33.47
2018-06-11T01:25:53.158Z,32.83
2018-06-11T01:28:25.341Z,31.90
2018-06-11T01:30:59.074Z,30.77
2018-06-11T01:33:29.497Z,32.77
2018-06-11T01:35:59.800Z,32.87
2018-06-11T01:38:34.278Z,32.97
2018-06-11T01:41:05.512Z,29.60
2018-06-11T01:43:34.539Z,33.33
2018-06-11T01:46:06.706Z,31.60
2018-06-11T01:48:38.245Z,34.47
2018-06-11T01:51:07.633Z,32.73
2018-06-11T01:53:37.191Z,49.10
2018-06-11T01:56:10.694Z,34.07
2018-06-11T01:58:41.583Z,31.90
2018-06-11T02:01:12.614Z,36.00
2018-06-11T02:03:46.832Z,30.80
2018-06-11T02:06:17.838Z,30.80
2018-06-11T02:08:47.558Z,31.67
2018-06-11T02:11:17.918Z,31.87
2018-06-11T02:13:48.611Z,28.93
2018-06-11T02:16:18.630Z,31.23
2018-06-11T02:18:50.254Z,34.57
2018-06-11T02:21:21.953Z,37.93
2018-06-11T02:23:55.241Z,31.90
2018-06-11T02:26:25.535Z,28.77
2018-06-11T02:28:55.521Z,35.90
2018-06-11T02:31:24.515Z,34.37
2018-06-11T02:33:55.867Z,30.67
2018-06-11T02:36:24.851Z,27.97
2018-06-11T02:38:55.834Z,32.10
2018-06-11T02:41:27.089Z,29.60
2018-06-11T02:44:01.383Z,35.87
2018-06-11T02:46:30.961Z,27.17
2018-06-11T02:49:00.375Z,27.20
2018-06-11T02:51:30.436Z,29.43
2018-06-11T02:54:01.231Z,31.50
2018-06-11T02:56:32.818Z,27.53
2018-06-11T02:59:02.810Z,30.97
2018-06-11T03:01:35.074Z,29.73
2018-06-11T03:04:06.419Z,32.10
2018-06-11T03:06:39.667Z,33.60
2018-06-11T03:09:14.998Z,30.87
2018-06-11T03:11:46.115Z,38.53
2018-06-11T03:14:20.058Z,27.93
2018-06-11T03:16:49.045Z,26.83
2018-06-11T03:19:19.160Z,28.70
2018-06-11T03:21:50.064Z,32.60
2018-06-11T03:24:22.532Z,30.40
2018-06-11T03:26:56.713Z,28.00
2018-06-11T03:29:26.405Z,26.97
2018-06-11T03:31:55.427Z,24.70
2018-06-11T03:34:25.811Z,24.87
2018-06-11T03:36:54.822Z,28.80
2018-06-11T03:39:23.920Z,26.00
2018-06-11T03:41:54.394Z,27.80
2018-06-11T03:44:24.003Z,33.47
2018-06-11T03:46:54.079Z,26.90
2018-06-11T03:49:23.065Z,27.10
2018-06-11T03:51:54.787Z,27.70
2018-06-11T03:54:25.020Z,23.00
2018-06-11T03:56:55.521Z,25.10
2018-06-11T03:59:27.365Z,30.17
2018-06-11T04:01:57.218Z,28.90
2018-06-11T04:04:29.526Z,32.30
2018-06-11T04:07:04.244Z,30.53
2018-06-11T04:09:36.586Z,32.37
2018-06-11T04:12:07.409Z,30.50
2018-06-11T04:14:37.427Z,29.57
2018-06-11T04:17:18.331Z,39.00
2018-06-11T04:19:48.281Z,39.53
2018-06-11T04:22:23.303Z,33.37
2018-06-11T04:24:54.714Z,34.33
2018-06-11T04:27:24.458Z,30.63
2018-06-11T04:29:57.346Z,31.23
2018-06-11T04:32:26.382Z,31.90
2018-06-11T04:34:57.594Z,32.60
2018-06-11T04:37:27.809Z,31.07
2018-06-11T04:39:57.885Z,42.53
2018-06-11T04:42:27.593Z,31.50
2018-06-11T04:44:56.623Z,38.03
2018-06-11T04:47:27.198Z,40.70
2018-06-11T04:49:59.285Z,34.30
2018-06-11T04:52:28.306Z,33.10
2018-06-11T04:54:57.821Z,35.03
2018-06-11T04:57:28.843Z,44.77
2018-06-11T04:59:58.772Z,35.70
2018-06-11T05:02:29.128Z,39.27
2018-06-11T05:05:00.164Z,34.50
2018-06-11T05:07:32.939Z,36.90
2018-06-11T05:10:03.319Z,41.23
2018-06-11T05:12:33.166Z,33.77
2018-06-11T05:15:02.274Z,45.87
2018-06-11T05:17:35.091Z,36.67
2018-06-11T05:20:05.155Z,48.50
2018-06-11T05:22:36.814Z,38.33
2018-06-11T13:22:23.811Z,23.60
2018-06-11T13:24:56.402Z,23.23
2018-06-11T13:27:26.827Z,18.07
2018-06-11T13:29:56.068Z,18.00
2018-06-11T13:32:28.758Z,15.43
2018-06-11T13:34:59.822Z,14.17
2018-06-11T13:37:31.503Z,11.90
2018-06-11T13:40:00.128Z,11.93
2018-06-11T13:42:28.774Z,13.83
2018-06-11T13:44:57.396Z,22.03
2018-06-11T13:47:26.080Z,17.90
2018-06-11T13:49:54.777Z,21.03
2018-06-11T13:52:23.447Z,16.27
2018-06-11T13:54:52.108Z,16.80
2018-06-11T13:57:20.756Z,14.47
2018-06-11T13:59:49.730Z,13.70
2018-06-11T14:02:18.820Z,11.63
2018-06-11T14:04:48.897Z,24.77
2018-06-11T14:07:17.913Z,11.37
2018-06-11T14:09:46.986Z,11.23
2018-06-11T14:12:16.022Z,12.77
2018-06-11T14:14:45.092Z,12.13
2018-06-11T14:17:14.198Z,11.37
2018-06-11T14:19:43.240Z,11.07
2018-06-11T14:22:12.361Z,11.40
2018-06-11T14:24:41.398Z,11.27
2018-06-11T14:27:10.956Z,10.03
2018-06-11T14:29:40.083Z,12.20
2018-06-11T14:32:09.154Z,16.90
2018-06-11T14:34:38.712Z,12.93
2018-06-11T14:37:10.028Z,12.70
2018-06-11T14:39:39.104Z,11.10
2018-06-11T14:42:08.448Z,11.40
2018-06-11T14:44:37.463Z,11.37
2018-06-11T14:47:06.605Z,11.70
2018-06-11T14:49:35.613Z,14.63
2018-06-11T14:52:08.517Z,12.80
2018-06-11T14:54:39.559Z,15.53
2018-06-11T14:57:09.296Z,15.40
2018-06-11T14:59:38.537Z,14.30
2018-06-11T15:02:07.572Z,8.00
2018-06-11T15:04:37.830Z,12.17
2018-06-11T15:07:08.460Z,10.00
2018-06-11T15:09:43.056Z,12.23
2018-06-11T15:12:12.157Z,12.40
2018-06-11T15:14:42.002Z,11.43
2018-06-11T15:17:11.275Z,13.27
2018-06-11T15:19:41.142Z,14.73
2018-06-11T15:22:13.658Z,12.67
2018-06-11T15:24:42.300Z,11.33
2018-06-11T15:27:11.031Z,13.17
2018-06-11T15:29:40.157Z,15.80
2018-06-11T15:32:09.254Z,14.03
2018-06-11T15:34:38.369Z,9.47
2018-06-11T15:37:07.349Z,18.93
2018-06-11T15:39:37.057Z,21.33
2018-06-11T15:42:06.843Z,12.60
2018-06-11T15:44:44.832Z,13.47
2018-06-11T15:47:14.813Z,13.43
2018-06-11T15:49:45.899Z,13.30
2018-06-11T15:52:16.902Z,14.57
2018-06-11T15:54:51.982Z,15.87
2018-06-11T15:57:26.838Z,14.13
2018-06-11T16:00:04.173Z,14.63
2018-06-11T16:02:33.194Z,14.30
2018-06-11T16:05:02.270Z,22.47
2018-06-11T16:07:33.080Z,11.53
2018-06-11T16:10:02.067Z,17.83
2018-06-11T16:12:49.719Z,14.83
2018-06-11T16:15:21.782Z,12.43
2018-06-11T16:17:50.716Z,12.40
2018-06-11T16:20:20.859Z,19.43
2018-06-11T16:22:49.891Z,16.50
2018-06-11T16:25:19.251Z,16.63
2018-06-11T16:27:53.687Z,12.27
2018-06-11T16:30:30.476Z,14.70
2018-06-11T16:33:04.989Z,10.93
2018-06-11T16:35:39.472Z,10.47
2018-06-11T16:38:20.486Z,9.23
2018-06-11T16:40:59.188Z,13.83
2018-06-11T16:43:30.336Z,12.83
2018-06-11T16:45:59.913Z,16.53
2018-06-11T16:48:30.304Z,16.60
2018-06-11T16:51:00.613Z,17.77
2018-06-11T16:53:30.612Z,12.10
2018-06-11T16:56:01.136Z,11.83
2018-06-11T16:58:31.958Z,11.07
2018-06-11T17:01:02.168Z,12.67
2018-06-11T17:03:32.338Z,13.67
2018-06-11T17:06:04.352Z,18.50
2018-06-11T17:08:35.158Z,21.90
2018-06-11T17:11:14.939Z,22.00
2018-06-11T17:13:45.784Z,17.17
2018-06-11T17:16:21.909Z,15.93
2018-06-11T17:18:57.917Z,18.63
2018-06-11T17:21:26.694Z,9.37
2018-06-11T17:23:56.081Z,11.00
2018-06-11T17:26:28.553Z,12.40
2018-06-11T17:28:58.774Z,20.17
2018-06-11T17:31:29.834Z,18.87
2018-06-11T17:34:01.857Z,16.97
2018-06-11T17:36:30.885Z,14.00
2018-06-11T17:39:00.747Z,17.90
2018-06-11T17:41:29.761Z,16.83
2018-06-11T17:43:59.422Z,8.97
2018-06-11T17:46:32.087Z,16.77
2018-06-11T17:49:02.231Z,11.90
2018-06-11T17:51:31.715Z,10.80
2018-06-11T17:54:00.776Z,8.20
2018-06-11T17:56:29.787Z,11.27
2018-06-11T17:59:00.644Z,11.27
2018-06-11T18:01:30.175Z,13.70
2018-06-11T18:04:00.956Z,13.00
2018-06-11T18:06:31.885Z,14.00
2018-06-11T18:09:01.703Z,21.47
2018-06-11T18:11:30.344Z,9.50
2018-06-11T18:14:04.534Z,8.47
2018-06-11T18:16:34.608Z,9.53
2018-06-11T18:19:04.133Z,9.50
2018-06-11T18:21:33.254Z,16.20
2018-06-11T18:24:06.709Z,21.57
2018-06-11T18:26:40.408Z,19.27
2018-06-11T18:29:10.221Z,9.53
2018-06-11T18:31:40.562Z,7.80
2018-06-11T18:34:09.244Z,7.43
2018-06-11T18:36:38.276Z,10.70
2018-06-11T18:39:08.885Z,13.53
2018-06-11T18:41:37.521Z,8.30
2018-06-11T18:44:07.729Z,7.40
2018-06-11T18:46:38.562Z,8.33
2018-06-11T18:49:07.599Z,8.10
2018-06-11T18:51:37.326Z,11.67
2018-06-11T18:54:07.389Z,12.63
2018-06-11T18:56:41.541Z,8.97
2018-06-11T18:59:10.609Z,7.93
2018-06-11T19:01:40.344Z,7.30
2018-06-11T19:04:10.452Z,9.83
2018-06-11T19:06:40.280Z,7.73
2018-06-11T19:09:15.728Z,11.47
2018-06-11T19:11:45.665Z,9.27
2018-06-11T19:14:15.920Z,8.37
2018-06-11T19:16:48.664Z,8.30
2018-06-11T19:19:17.685Z,7.60
2018-06-11T19:21:47.483Z,9.60
2018-06-11T19:24:17.190Z,10.13
2018-06-11T19:26:48.680Z,9.83
2018-06-11T19:29:17.302Z,10.67
2018-06-11T19:31:48.674Z,12.20
2018-06-11T19:34:17.296Z,9.00
2018-06-11T19:36:45.924Z,10.17
2018-06-11T19:39:15.186Z,7.80
2018-06-11T19:41:43.823Z,14.57
2018-06-11T19:44:12.474Z,11.33
2018-06-11T19:46:41.213Z,10.97
2018-06-11T19:49:09.919Z,10.47
2018-06-11T19:51:40.638Z,17.93
2018-06-11T19:54:09.386Z,10.20
2018-06-11T19:56:39.271Z,9.97
2018-06-11T19:59:07.932Z,13.23
2018-06-11T20:01:37.447Z,14.67
2018-06-11T20:04:07.944Z,9.20
2018-06-11T20:06:36.690Z,37.90
2018-06-11T20:09:07.723Z,16.93
2018-06-11T20:11:36.437Z,7.83
2018-06-11T20:14:06.739Z,11.60
2018-06-11T20:16:36.059Z,10.10
2018-06-11T20:19:08.788Z,9.60
2018-06-11T20:21:37.495Z,9.07
2018-06-11T20:24:06.267Z,13.10
2018-06-11T20:26:37.954Z,20.33
2018-06-11T20:29:07.112Z,17.17
2018-06-11T20:31:35.735Z,19.20
2018-06-11T20:34:05.309Z,11.40
2018-06-11T20:36:35.181Z,9.37
2018-06-11T20:39:06.146Z,10.47
2018-06-11T20:41:35.011Z,10.50
2018-06-11T20:44:03.848Z,10.80
2018-06-11T20:46:34.946Z,10.50
2018-06-11T20:49:04.986Z,12.03
2018-06-11T20:51:35.657Z,14.93
2018-06-11T20:54:04.367Z,10.87
2018-06-11T20:56:33.031Z,12.73
2018-06-11T20:59:02.924Z,9.80
2018-06-11T21:01:32.803Z,12.07
2018-06-11T21:04:01.459Z,10.77
2018-06-11T21:06:30.096Z,11.60
2018-06-11T21:08:58.776Z,10.00
2018-06-11T21:11:27.426Z,12.47
2018-06-11T21:13:56.734Z,15.73
2018-06-11T21:16:25.379Z,10.03
2018-06-11T21:18:55.109Z,11.97
2018-06-11T21:21:24.576Z,12.43
2018-06-11T21:23:53.209Z,11.63
2018-06-11T21:26:22.238Z,10.60
2018-06-11T21:28:51.784Z,12.33
2018-06-11T21:31:20.892Z,10.37
2018-06-11T21:33:49.996Z,16.80
2018-06-11T21:36:19.518Z,18.33
2018-06-11T21:38:49.778Z,9.87
2018-06-11T21:41:18.853Z,14.30
2018-06-11T21:43:48.038Z,11.70
2018-06-11T21:46:17.243Z,11.73
2018-06-11T21:48:46.286Z,11.40
2018-06-11T21:51:15.348Z,10.67
2018-06-11T21:53:44.368Z,13.37
2018-06-11T21:56:14.540Z,10.93
2018-06-11T21:58:43.601Z,11.67
2018-06-11T22:01:12.672Z,13.90
2018-06-11T22:03:42.532Z,13.30
2018-06-11T22:06:12.061Z,10.83
2018-06-11T22:08:41.072Z,10.07
2018-06-11T22:11:10.408Z,11.83
2018-06-11T22:13:39.434Z,13.63
2018-06-11T22:16:08.488Z,10.57
2018-06-11T22:18:37.507Z,15.37
2018-06-11T22:21:06.532Z,13.27
2018-06-11T22:23:35.537Z,14.87
2018-06-11T22:26:04.607Z,14.07
2018-06-11T22:28:33.718Z,22.70
2018-06-11T22:31:02.737Z,13.53
2018-06-11T22:33:31.758Z,10.60
2018-06-11T22:36:01.764Z,17.90
2018-06-11T22:38:30.861Z,13.37
2018-06-11T22:40:59.884Z,13.40
2018-06-11T22:43:29.028Z,14.40
2018-06-11T22:45:59.460Z,16.47
2018-06-11T22:48:31.884Z,11.03
2018-06-11T22:51:01.582Z,13.60
2018-06-11T22:53:30.648Z,12.80
2018-06-11T22:56:02.232Z,12.37
2018-06-11T22:58:31.286Z,13.77
2018-06-11T23:01:00.305Z,13.23
2018-06-11T23:03:29.003Z,12.50
2018-06-11T23:05:57.979Z,12.60
2018-06-11T23:08:26.956Z,13.30
2018-06-11T23:10:56.013Z,14.93
2018-06-11T23:13:28.642Z,15.40
2018-06-11T23:15:57.704Z,20.33
2018-06-11T23:18:26.698Z,21.80
2018-06-11T23:20:55.728Z,12.60
2018-06-11T23:23:24.768Z,35.43
2018-06-11T23:25:53.964Z,21.47
2018-06-11T23:28:24.464Z,37.70
2018-06-11T23:30:54.144Z,20.10
2018-06-11T23:33:23.168Z,16.70
2018-06-11T23:35:51.914Z,15.00
2018-06-11T23:38:21.332Z,14.90
2018-06-11T23:40:50.372Z,12.50
2018-06-11T23:43:19.799Z,15.93
2018-06-11T23:45:48.853Z,16.90
2018-06-11T23:48:17.872Z,22.93
2018-06-11T23:50:47.398Z,19.10
2018-06-11T23:53:16.428Z,14.80
2018-06-11T23:55:46.117Z,17.90
2018-06-11T23:58:15.156Z,18.17
